Time;durP1;ratioP1;P1;durP2;ratioP2;P2;SDS_P1;SDS_P2;PMS_P1;PMS_P2;Temp;Humidity;BMP_temperature;BMP_pressure;BME280_temperature;BME280_humidity;BME280_pressure;Samples;Min_cycle;Max_cycle;Signal;HPM_P1;HPM_P2
2023/02/14 00:02:00;;;;;;;;;76.33;60.67;;;;;9.62;51.65;102864.09;6309508;22;45297;-71
2023/02/14 00:04:26;;;;;;;;;77.33;59.33;;;;;9.59;51.74;102859.66;6309489;22;45227;-70
2023/02/14 00:06:51;;;;;;;;;75.33;59.33;;;;;9.56;51.38;102862.22;6309474;22;45255;-75
2023/02/14 00:09:18;;;;;;;;;82.67;63.33;;;;;9.58;51.58;102872.75;6309412;22;45310;-71
2023/02/14 00:11:46;;;;;;;;;74.00;57.00;;;;;9.52;51.64;102870.88;6307592;22;45203;-67
2023/02/14 00:16:57;;;;;;;;;76.33;60.67;;;;;9.49;51.65;102864.66;6309030;22;45180;-77
2023/02/14 00:19:26;;;;;;;;;79.67;66.33;;;;;9.44;51.82;102862.78;6309736;22;45373;-79
2023/02/14 00:21:51;;;;;;;;;76.67;60.67;;;;;9.44;51.81;102864.56;6309416;22;45337;-78
2023/02/14 00:24:22;;;;;;;;;80.67;66.00;;;;;9.39;51.91;102856.56;6333954;22;46964;-77
2023/02/14 00:26:48;;;;;;;;;83.33;63.67;;;;;9.37;51.77;102862.63;6309530;22;45222;-78
2023/02/14 00:29:17;;;;;;;;;77.67;58.67;;;;;9.35;51.96;102859.97;6309582;22;45314;-77
2023/02/14 00:31:43;;;;;;;;;82.00;60.33;;;;;9.29;51.67;102854.56;6309167;22;45288;-78
2023/02/14 00:34:09;;;;;;;;;80.00;67.33;;;;;9.30;52.15;102864.22;6333892;22;45904;-77
2023/02/14 00:36:35;;;;;;;;;76.00;60.00;;;;;9.29;52.02;102865.06;6307618;22;45254;-78
2023/02/14 00:39:05;;;;;;;;;72.67;57.00;;;;;9.26;52.14;102865.00;6309331;22;45330;-78
2023/02/14 00:41:31;;;;;;;;;79.00;59.00;;;;;9.23;52.12;102857.03;6309239;22;45176;-78
2023/02/14 00:43:57;;;;;;;;;81.00;66.00;;;;;9.22;52.03;102853.53;6309376;22;45385;-78
2023/02/14 00:46:22;;;;;;;;;80.33;66.67;;;;;9.20;52.00;102852.59;6309092;22;45353;-77
2023/02/14 00:48:48;;;;;;;;;76.00;60.67;;;;;9.14;52.07;102844.56;6309361;22;45449;-78
2023/02/14 00:51:14;;;;;;;;;60.67;50.67;;;;;9.14;52.04;102841.06;6309177;22;45390;-78
2023/02/14 00:53:41;;;;;;;;;78.00;61.00;;;;;9.15;52.30;102848.09;6309114;22;45208;-78
2023/02/14 00:56:07;;;;;;;;;81.67;60.00;;;;;9.10;52.22;102848.84;6307059;22;45968;-78
2023/02/14 00:58:33;;;;;;;;;73.33;56.67;;;;;9.09;52.16;102839.22;6309149;22;45238;-78
2023/02/14 01:00:58;;;;;;;;;80.33;62.00;;;;;9.10;52.24;102851.47;6309154;22;45854;-78
2023/02/14 01:03:24;;;;;;;;;76.67;58.67;;;;;8.98;52.46;102831.91;6309114;22;45306;-77
2023/02/14 01:05:50;;;;;;;;;82.00;64.33;;;;;9.00;52.34;102833.72;6307005;22;45702;-78
2023/02/14 01:08:16;;;;;;;;;80.00;66.33;;;;;9.02;52.41;102842.53;6310089;22;45278;-78
2023/02/14 01:10:42;;;;;;;;;82.00;64.67;;;;;8.96;52.34;102833.63;6310620;22;45329;-78
2023/02/14 01:13:09;;;;;;;;;76.00;61.00;;;;;8.98;52.40;102840.69;6310367;22;46222;-78
2023/02/14 01:15:39;;;;;;;;;86.00;70.67;;;;;8.93;52.23;102830.06;6308186;22;45139;-77
2023/02/14 01:18:04;;;;;;;;;82.33;67.67;;;;;8.93;52.37;102835.31;6310633;22;45261;-76
2023/02/14 01:20:30;;;;;;;;;84.67;71.00;;;;;8.86;52.18;102828.13;6334830;22;45241;-78
2023/02/14 01:22:55;;;;;;;;;86.33;76.00;;;;;8.89;52.50;102832.56;6310513;22;46112;-76
2023/02/14 01:25:20;;;;;;;;;86.33;75.00;;;;;8.81;52.48;102834.97;6310556;22;45284;-76
2023/02/14 01:27:45;;;;;;;;;82.00;68.00;;;;;8.83;52.46;102837.63;6310416;22;45380;-76
2023/02/14 01:30:11;;;;;;;;;86.33;73.00;;;;;8.80;52.58;102845.44;6310365;22;45388;-77
2023/02/14 01:32:37;;;;;;;;;86.00;73.33;;;;;8.73;52.51;102829.53;6310055;22;45376;-77
2023/02/14 01:35:03;;;;;;;;;87.67;74.67;;;;;8.73;52.62;102842.66;6310403;22;45285;-77
2023/02/14 01:37:29;;;;;;;;;83.00;70.33;;;;;8.67;52.52;102841.59;6310703;22;45287;-76
2023/02/14 01:39:54;;;;;;;;;81.33;64.00;;;;;8.67;52.57;102846.84;6310801;22;45181;-77
2023/02/14 01:42:20;;;;;;;;;84.00;69.00;;;;;8.65;52.73;102838.03;6310380;22;45132;-77
2023/02/14 01:44:48;;;;;;;;;80.00;62.33;;;;;8.65;52.33;102849.41;6308505;22;45572;-77
2023/02/14 01:47:15;;;;;;;;;82.67;64.33;;;;;8.62;52.46;102844.97;6310283;22;45271;-77
2023/02/14 01:49:48;;;;;;;;;78.67;61.67;;;;;8.55;52.37;102831.66;6334812;22;45411;-77
2023/02/14 01:52:21;;;;;;;;;85.00;70.00;;;;;8.52;52.43;102837.69;6310626;22;45401;-77
2023/02/14 01:55:11;;;;;;;;;80.00;63.00;;;;;8.55;52.46;102842.13;6310115;22;45230;-77
2023/02/14 01:57:42;;;;;;;;;80.33;59.67;;;;;8.52;52.50;102834.19;6310003;22;45238;-76
2023/02/14 02:02:55;;;;;;;;;82.33;66.00;;;;;8.44;52.53;102834.84;6309876;22;45696;-76
2023/02/14 02:05:22;;;;;;;;;81.67;65.67;;;;;8.45;52.50;102834.00;6310212;22;45204;-77
2023/02/14 02:07:53;;;;;;;;;77.67;62.00;;;;;8.45;52.33;102836.63;6307449;22;45208;-76
2023/02/14 02:10:18;;;;;;;;;78.67;64.00;;;;;8.37;52.54;102832.88;6334465;22;45426;-77
2023/02/14 02:12:46;;;;;;;;;82.67;67.33;;;;;8.38;52.43;102834.66;6310397;22;46063;-77
2023/02/14 02:15:12;;;;;;;;;85.00;66.67;;;;;8.37;52.52;102832.88;6310269;22;45249;-77
2023/02/14 02:17:51;;;;;;;;;82.67;67.33;;;;;8.37;52.44;102838.13;6307550;22;45306;-77
2023/02/14 02:20:42;;;;;;;;;82.00;69.00;;;;;8.35;52.62;102833.69;6310399;22;45098;-77
2023/02/14 02:23:32;;;;;;;;;78.00;61.33;;;;;8.33;52.57;102832.72;6310166;22;46178;-77
2023/02/14 02:26:13;;;;;;;;;84.00;66.33;;;;;8.30;52.53;102828.28;6310472;22;45279;-77
2023/02/14 02:29:06;;;;;;;;;82.33;62.67;;;;;8.27;52.74;102836.09;6310215;22;45375;-77
2023/02/14 02:31:31;;;;;;;;;80.33;64.33;;;;;8.24;52.76;102834.25;6309942;22;45237;-77
2023/02/14 02:34:16;;;;;;;;;83.67;70.00;;;;;8.23;52.67;102834.22;6310195;22;45195;-77
2023/02/14 02:36:47;;;;;;;;;89.67;79.33;;;;;8.21;52.49;102839.41;6310401;22;45185;-77
2023/02/14 02:39:31;;;;;;;;;86.33;76.67;;;;;8.18;52.90;102828.84;6310382;22;45108;-77
2023/02/14 02:42:16;;;;;;;;;85.67;75.00;;;;;8.14;52.68;102827.88;6310101;22;45423;-77
2023/02/14 02:44:55;;;;;;;;;87.00;77.33;;;;;8.11;52.58;102830.41;6309993;22;45361;-77
2023/02/14 02:47:25;;;;;;;;;93.33;82.00;;;;;8.09;52.75;102831.22;6309877;22;45238;-77
2023/02/14 02:53:07;;;;;;;;;70.67;53.00;;;;;8.02;52.87;102835.34;6310353;22;45247;-76
2023/02/14 02:58:45;;;;;;;;;89.00;79.67;;;;;7.96;52.76;102822.97;6310112;22;45083;-77
2023/02/14 03:01:16;;;;;;;;;87.33;73.00;;;;;7.96;52.78;102819.47;6308117;22;45390;-77
2023/02/14 03:06:30;;;;;;;;;80.67;63.00;;;;;7.89;52.97;102810.53;6310016;22;45622;-76
2023/02/14 03:08:55;;;;;;;;;75.33;60.00;;;;;7.86;52.85;102809.56;6309435;22;45159;-77
2023/02/14 03:11:23;;;;;;;;;85.33;70.67;;;;;7.85;52.40;102805.16;6310140;22;45117;-77
2023/02/14 03:13:48;;;;;;;;;84.33;68.33;;;;;7.86;52.71;102813.09;6310350;22;45302;-77
2023/02/14 03:16:23;;;;;;;;;85.33;65.33;;;;;7.84;52.88;102811.25;6309838;22;45274;-76
2023/02/14 03:21:59;;;;;;;;;84.67;69.00;;;;;7.79;52.76;102811.13;6310197;22;45254;-77
2023/02/14 03:25:04;;;;;;;;;81.67;66.33;;;;;7.72;52.63;102807.44;6310179;22;45095;-76
2023/02/14 03:27:56;;;;;;;;;81.00;64.00;;;;;7.71;52.96;102812.59;6313833;22;46984;-77
2023/02/14 03:30:44;;;;;;;;;79.00;65.00;;;;;7.70;52.98;102816.03;6307283;22;45256;-77
2023/02/14 03:33:30;;;;;;;;;82.00;65.67;;;;;7.65;52.85;102813.31;6310274;22;45264;-77
2023/02/14 03:36:02;;;;;;;;;81.33;65.00;;;;;7.62;53.04;102813.19;6309994;22;45315;-77
2023/02/14 03:38:37;;;;;;;;;79.00;60.67;;;;;7.59;52.93;102802.66;6309933;22;46187;-77
2023/02/14 03:41:08;;;;;;;;;78.33;61.33;;;;;7.56;52.91;102805.16;6309449;22;45322;-77
2023/02/14 03:43:38;;;;;;;;;78.67;59.00;;;;;7.52;53.03;102796.34;6310021;22;45350;-77
2023/02/14 03:46:10;;;;;;;;;81.00;64.00;;;;;7.51;53.07;102805.03;6309576;22;45371;-77
2023/02/14 03:48:39;;;;;;;;;75.67;59.67;;;;;7.49;52.88;102810.19;6309198;22;46189;-77
2023/02/14 03:51:10;;;;;;;;;75.33;59.67;;;;;7.48;52.87;102805.81;6307869;22;45632;-76
2023/02/14 03:53:39;;;;;;;;;81.00;63.33;;;;;7.46;53.00;102807.50;6334265;22;45280;-76
2023/02/14 03:56:35;;;;;;;;;81.00;63.33;;;;;7.43;52.99;102799.56;6309265;22;45105;-76
2023/02/14 03:59:07;;;;;;;;;80.33;61.00;;;;;7.39;53.08;102802.03;6300548;22;46197;-77
2023/02/14 04:01:44;;;;;;;;;79.33;59.00;;;;;7.40;52.89;102804.69;6309467;22;45236;-77
2023/02/14 04:04:13;;;;;;;;;81.67;60.33;;;;;7.39;52.93;102809.88;6333927;22;45333;-77
2023/02/14 04:06:39;;;;;;;;;75.00;58.00;;;;;7.35;53.62;102811.50;6307634;22;46010;-77
2023/02/14 04:09:07;;;;;;;;;80.00;61.33;;;;;7.32;53.19;102811.41;6308783;22;46075;-77
2023/02/14 04:11:34;;;;;;;;;80.33;63.67;;;;;7.33;53.06;102821.00;6307809;22;45268;-77
2023/02/14 04:14:00;;;;;;;;;72.00;58.33;;;;;7.30;53.09;102815.69;6307757;22;45144;-77
2023/02/14 04:16:29;;;;;;;;;78.00;59.00;;;;;7.30;53.16;102816.56;6309563;22;45220;-77
2023/02/14 04:21:42;;;;;;;;;80.00;61.33;;;;;7.25;53.33;102812.91;6309770;22;45284;-77
2023/02/14 04:24:07;;;;;;;;;78.33;58.67;;;;;7.22;53.37;102814.53;6334100;22;45346;-77
2023/02/14 04:26:33;;;;;;;;;80.67;62.00;;;;;7.23;53.18;102824.16;6309583;22;45323;-77
2023/02/14 04:28:58;;;;;;;;;80.67;63.33;;;;;7.22;53.31;102819.75;6309472;22;45863;-77
2023/02/14 04:31:27;;;;;;;;;98.33;90.00;;;;;7.19;53.29;102817.06;6307316;22;45212;-77
2023/02/14 04:33:53;;;;;;;;;78.67;58.67;;;;;7.14;52.99;102811.69;6309346;22;45243;-77
2023/02/14 04:36:18;;;;;;;;;76.00;59.33;;;;;7.15;53.46;102811.72;6309690;22;45358;-77
2023/02/14 04:38:43;;;;;;;;;78.67;60.33;;;;;7.13;53.18;102808.19;6309228;22;45229;-76
2023/02/14 04:41:09;;;;;;;;;78.67;60.00;;;;;7.14;53.26;102820.44;6310155;22;45283;-77
2023/02/14 04:43:34;;;;;;;;;79.00;59.00;;;;;7.14;53.47;102825.66;6334947;22;45261;-77
2023/02/14 04:45:59;;;;;;;;;77.33;58.00;;;;;7.11;53.34;102815.06;6310573;22;45508;-77
2023/02/14 04:48:25;;;;;;;;;82.00;61.00;;;;;7.07;53.30;102818.44;6310385;22;45244;-77
2023/02/14 04:50:54;;;;;;;;;78.67;60.67;;;;;7.08;53.42;102825.44;6310852;22;45333;-77
2023/02/14 04:53:20;;;;;;;;;81.00;62.33;;;;;7.05;53.47;102817.47;6310980;22;45165;-77
2023/02/14 04:55:48;;;;;;;;;77.33;59.00;;;;;7.05;53.44;102825.31;6310790;22;45163;-77
2023/02/14 04:58:14;;;;;;;;;81.33;61.33;;;;;7.04;53.50;102822.66;6310445;22;45365;-77
2023/02/14 05:00:42;;;;;;;;;82.00;61.00;;;;;7.01;53.42;102823.44;6310182;22;45193;-77
2023/02/14 05:03:10;;;;;;;;;82.67;62.67;;;;;7.00;53.48;102819.06;6311044;22;45248;-76
2023/02/14 05:05:36;;;;;;;;;89.33;72.67;;;;;6.97;53.52;102816.34;6310642;22;45218;-77
2023/02/14 05:08:06;;;;;;;;;81.33;63.00;;;;;6.86;53.31;102807.25;6310151;22;45147;-77
2023/02/14 05:10:32;;;;;;;;;83.67;61.67;;;;;6.92;53.50;102823.16;6334875;22;45415;-77
2023/02/14 05:12:57;;;;;;;;;78.67;59.67;;;;;6.90;53.52;102827.44;6310742;22;45456;-77
2023/02/14 05:15:22;;;;;;;;;83.33;63.33;;;;;6.87;53.48;102825.59;6310238;22;45340;-77
2023/02/14 05:17:48;;;;;;;;;81.33;61.00;;;;;6.80;53.58;102807.91;6310372;22;45204;-77
2023/02/14 05:20:13;;;;;;;;;73.25;57.75;;;;;6.78;53.67;102818.31;6310659;22;45239;-77
2023/02/14 05:22:38;;;;;;;;;80.00;59.25;;;;;6.80;53.49;102823.59;6334638;22;45232;-78
2023/02/14 05:25:04;;;;;;;;;75.50;55.00;;;;;6.77;53.36;102826.13;6310845;22;45175;-77
2023/02/14 05:27:29;;;;;;;;;76.50;57.00;;;;;6.74;53.55;102819.06;6309957;22;46211;-77
2023/02/14 05:29:55;;;;;;;;;73.00;56.00;;;;;6.73;53.59;102826.81;6334577;22;45271;-77
2023/02/14 05:32:20;;;;;;;;;69.75;54.75;;;;;6.70;53.58;102821.50;6307847;22;45197;-76
2023/02/14 05:34:45;;;;;;;;;72.33;55.33;;;;;6.63;53.88;102816.06;6310365;22;45214;-77
2023/02/14 05:37:11;;;;;;;;;73.75;56.25;;;;;6.64;54.04;102820.47;6333338;22;47111;-77
2023/02/14 05:39:37;;;;;;;;;75.50;58.00;;;;;6.62;53.86;102814.28;6310405;22;45156;-77
2023/02/14 05:42:02;;;;;;;;;72.50;57.00;;;;;6.62;53.63;102816.03;6309652;22;45218;-77
2023/02/14 05:44:28;;;;;;;;;74.25;57.00;;;;;6.60;53.78;102815.97;6310795;22;45218;-77
2023/02/14 05:46:54;;;;;;;;;77.00;57.25;;;;;6.56;53.91;102808.84;6309971;22;46122;-77
2023/02/14 05:49:19;;;;;;;;;75.00;56.00;;;;;6.56;53.85;102810.56;6308203;22;45290;-77
2023/02/14 05:51:44;;;;;;;;;64.75;47.75;;;;;6.53;53.72;102813.06;6310034;22;45354;-77
2023/02/14 05:54:10;;;;;;;;;70.75;53.75;;;;;6.53;53.90;102816.59;6310162;22;45335;-77
2023/02/14 05:56:35;;;;;;;;;69.25;53.25;;;;;6.52;53.93;102816.53;6310156;22;46448;-77
2023/02/14 05:59:00;;;;;;;;;68.25;51.25;;;;;6.48;53.94;102815.53;6307948;22;45173;-77
2023/02/14 06:01:26;;;;;;;;;71.50;55.75;;;;;6.45;53.86;102810.19;6310084;22;45322;-77
2023/02/14 06:03:51;;;;;;;;;74.00;55.00;;;;;6.43;53.99;102810.13;6308438;22;45469;-77
2023/02/14 06:06:17;;;;;;;;;73.75;56.00;;;;;6.40;54.00;102809.13;6310127;22;45930;-77
2023/02/14 06:08:42;;;;;;;;;71.50;53.00;;;;;6.34;53.93;102797.63;6307666;22;46067;-77
2023/02/14 06:11:07;;;;;;;;;71.50;54.75;;;;;6.40;54.16;102819.56;6310452;22;45374;-77
2023/02/14 06:13:32;;;;;;;;;79.25;59.25;;;;;6.38;54.16;102819.53;6334763;22;45522;-76
2023/02/14 06:15:58;;;;;;;;;74.75;54.00;;;;;6.37;54.55;102809.91;6309891;22;45218;-77
2023/02/14 06:18:26;;;;;;;;;67.50;55.00;;;;;6.37;54.07;102817.75;6310050;22;45387;-77
2023/02/14 06:20:53;;;;;;;;;76.25;55.50;;;;;6.30;53.97;102800.06;6308421;22;45129;-77
2023/02/14 06:23:18;;;;;;;;;71.00;52.25;;;;;6.32;54.20;102812.34;6310359;22;45117;-77
2023/02/14 06:25:44;;;;;;;;;75.25;54.75;;;;;6.32;54.31;102806.25;6308866;22;47502;-78
2023/02/14 06:28:09;;;;;;;;;66.75;52.00;;;;;6.28;54.16;102802.63;6310160;22;45353;-78
2023/02/14 06:30:34;;;;;;;;;63.50;52.75;;;;;6.27;54.21;102807.81;6310264;22;45449;-76
2023/02/14 06:33:00;;;;;;;;;63.25;50.25;;;;;6.28;54.47;102818.28;6310357;22;45632;-77
2023/02/14 06:35:25;;;;;;;;;70.50;53.00;;;;;6.25;54.37;102806.84;6334414;22;45848;-76
2023/02/14 06:37:51;;;;;;;;;67.00;53.00;;;;;6.26;54.49;102814.72;6307851;22;45636;-76
2023/02/14 06:40:18;;;;;;;;;64.50;51.75;;;;;6.23;54.44;102814.63;6310510;22;45179;-77
2023/02/14 06:42:49;;;;;;;;;71.75;56.00;;;;;6.18;53.99;102806.59;6334531;22;45343;-76
2023/02/14 06:45:15;;;;;;;;;72.50;52.75;;;;;6.20;54.33;102800.56;6309669;22;46143;-76
2023/02/14 06:47:40;;;;;;;;;67.00;53.25;;;;;6.23;54.33;102813.75;6310115;22;45184;-76
2023/02/14 06:50:06;;;;;;;;;69.00;52.00;;;;;6.21;54.57;102803.22;6310110;22;45225;-77
2023/02/14 06:52:32;;;;;;;;;66.25;53.25;;;;;6.17;54.62;102803.94;6310446;22;45607;-77
2023/02/14 06:54:58;;;;;;;;;68.50;53.00;;;;;6.19;54.60;102810.13;6310395;22;46314;-77
2023/02/14 06:57:23;;;;;;;;;70.75;53.00;;;;;6.19;54.46;102810.13;6310016;22;45259;-76
2023/02/14 06:59:48;;;;;;;;;71.75;54.75;;;;;6.18;54.49;102813.56;6310266;22;45296;-76
2023/02/14 07:02:14;;;;;;;;;71.00;52.75;;;;;6.11;54.75;102807.25;6310078;22;45364;-78
2023/02/14 07:04:39;;;;;;;;;69.25;52.75;;;;;6.14;54.83;102814.28;6310065;22;45189;-77
2023/02/14 07:07:04;;;;;;;;;66.00;51.00;;;;;6.16;54.40;102820.44;6309206;22;45097;-77
2023/02/14 07:09:30;;;;;;;;;68.25;52.75;;;;;6.06;54.64;102802.66;6309888;22;45203;-78
2023/02/14 07:11:55;;;;;;;;;65.50;51.25;;;;;6.14;54.56;102820.41;6310200;22;45138;-75
2023/02/14 07:14:20;;;;;;;;;72.50;55.75;;;;;6.14;54.84;102828.22;6310045;22;45222;-74
2023/02/14 07:16:46;;;;;;;;;68.50;54.00;;;;;6.09;54.59;102816.72;6333606;22;45341;-71
2023/02/14 07:19:11;;;;;;;;;69.50;51.25;;;;;6.12;54.73;102824.66;6334464;22;45236;-72
2023/02/14 07:21:37;;;;;;;;;62.25;50.75;;;;;6.15;54.70;102824.78;6310021;22;45271;-73
2023/02/14 07:24:05;;;;;;;;;66.00;52.25;;;;;6.11;54.47;102820.28;6310013;22;45094;-69
2023/02/14 07:26:31;;;;;;;;;61.50;48.50;;;;;6.14;54.67;102825.63;6307760;22;45178;-70
2023/02/14 07:28:56;;;;;;;;;67.25;52.00;;;;;6.13;54.67;102822.94;6307859;22;45279;-72
2023/02/14 07:31:22;;;;;;;;;66.00;51.00;;;;;6.10;54.72;102822.81;6307636;22;45438;-72
2023/02/14 07:33:48;;;;;;;;;63.75;50.50;;;;;6.09;54.82;102827.16;6310014;22;45976;-69
2023/02/14 07:36:14;;;;;;;;;61.00;50.00;;;;;6.07;54.85;102828.81;6310241;22;45168;-72
2023/02/14 07:38:39;;;;;;;;;64.50;50.75;;;;;6.10;54.81;102838.47;6309766;22;45156;-73
2023/02/14 07:41:04;;;;;;;;;68.00;55.25;;;;;6.06;54.86;102831.38;6309931;22;45150;-75
2023/02/14 07:43:30;;;;;;;;;71.75;54.50;;;;;5.98;54.88;102826.75;6309723;22;45214;-73
2023/02/14 07:45:55;;;;;;;;;71.50;55.50;;;;;6.00;55.01;102835.53;6309630;22;45232;-76
2023/02/14 07:48:21;;;;;;;;;80.00;57.75;;;;;5.98;55.03;102823.22;6309479;22;45866;-77
2023/02/14 07:50:47;;;;;;;;;72.00;56.75;;;;;5.98;54.82;102836.28;6309852;22;45196;-76
2023/02/14 07:53:12;;;;;;;;;71.75;56.50;;;;;5.95;54.87;102839.66;6309699;22;45260;-72
2023/02/14 07:55:41;;;;;;;;;73.33;55.67;;;;;5.95;55.09;102833.53;6307726;22;45258;-72
2023/02/14 07:58:06;;;;;;;;;76.00;57.75;;;;;5.94;55.02;102837.00;6307485;22;45354;-73
2023/02/14 08:00:32;;;;;;;;;73.00;58.33;;;;;5.94;54.91;102829.16;6309531;22;45182;-72
2023/02/14 08:02:57;;;;;;;;;73.00;58.25;;;;;5.94;54.88;102829.16;6307720;22;45186;-72
2023/02/14 08:05:23;;;;;;;;;75.00;58.50;;;;;5.94;54.52;102834.38;6309311;22;45247;-72
2023/02/14 08:07:49;;;;;;;;;69.25;54.00;;;;;5.93;55.01;102835.22;6307408;22;45245;-72
2023/02/14 08:10:15;;;;;;;;;70.00;55.50;;;;;5.89;54.92;102826.38;6310016;22;45529;-73
2023/02/14 08:12:59;;;;;;;;;65.50;53.50;;;;;5.91;54.96;102826.44;6309611;22;46499;-72
2023/02/14 08:18:11;;;;;;;;;67.25;50.25;;;;;5.85;55.09;102814.91;6309916;22;45176;-72
2023/02/14 08:20:36;;;;;;;;;71.50;49.75;;;;;5.89;55.26;102823.75;6309440;22;45519;-72
2023/02/14 08:23:02;;;;;;;;;66.75;51.50;;;;;5.85;55.22;102822.75;6333282;22;46089;-72
2023/02/14 08:25:28;;;;;;;;;68.75;54.00;;;;;5.89;55.26;102822.84;6307690;22;45188;-72
2023/02/14 08:27:54;;;;;;;;;72.75;56.25;;;;;5.91;55.14;102822.13;6308905;22;45243;-73
2023/02/14 08:30:20;;;;;;;;;79.67;59.33;;;;;5.91;55.15;102816.91;6309349;22;45306;-72
2023/02/14 08:32:49;;;;;;;;;74.00;56.50;;;;;5.93;55.18;102825.66;6307517;22;47785;-73
2023/02/14 08:35:14;;;;;;;;;73.67;54.67;;;;;5.94;55.08;102824.81;6307495;22;45241;-73
2023/02/14 08:37:40;;;;;;;;;81.00;60.00;;;;;5.92;55.19;102816.03;6309397;22;45223;-72
2023/02/14 08:40:06;;;;;;;;;81.67;60.67;;;;;5.97;55.14;102824.94;6307597;22;45473;-73
2023/02/14 08:42:31;;;;;;;;;79.67;60.33;;;;;5.96;55.10;102817.03;6309204;22;45147;-73
2023/02/14 08:44:57;;;;;;;;;79.33;60.00;;;;;6.03;55.41;102826.06;6333773;22;45384;-72
2023/02/14 08:47:22;;;;;;;;;82.33;60.33;;;;;6.04;55.26;102831.31;6309060;22;45239;-73
2023/02/14 08:49:49;;;;;;;;;83.33;66.00;;;;;6.06;55.36;102837.47;6333829;22;45440;-72
2023/02/14 08:52:14;;;;;;;;;71.25;56.00;;;;;6.09;55.33;102835.00;6309437;22;45898;-73
2023/02/14 08:54:40;;;;;;;;;78.00;59.00;;;;;6.10;55.35;102828.03;6309333;22;45374;-73
2023/02/14 08:57:05;;;;;;;;;76.00;56.67;;;;;6.09;55.10;102832.38;6307143;22;45259;-73
2023/02/14 08:59:31;;;;;;;;;72.25;55.25;;;;;6.13;55.42;102831.66;6333559;22;45315;-72
2023/02/14 09:01:56;;;;;;;;;74.25;58.00;;;;;6.13;55.62;102836.00;6308857;22;45376;-73
2023/02/14 09:04:22;;;;;;;;;76.33;58.00;;;;;6.14;55.47;102832.56;6307268;22;45268;-73
2023/02/14 09:06:47;;;;;;;;;73.00;57.00;;;;;6.18;55.51;102831.84;6307821;22;45193;-73
2023/02/14 09:09:13;;;;;;;;;72.67;54.00;;;;;6.20;55.76;102834.50;6308997;22;45243;-73
2023/02/14 09:11:38;;;;;;;;;70.25;54.50;;;;;6.23;55.62;102826.81;6308958;22;45361;-73
2023/02/14 09:14:03;;;;;;;;;71.33;56.67;;;;;6.22;55.48;102835.47;6333385;22;45173;-73
2023/02/14 09:16:29;;;;;;;;;80.33;61.00;;;;;6.28;55.70;102843.53;6309159;22;45133;-73
2023/02/14 09:18:55;;;;;;;;;78.00;59.00;;;;;6.28;55.53;102835.69;6308807;22;45517;-72
2023/02/14 09:21:24;;;;;;;;;75.00;58.00;;;;;6.33;55.69;102842.84;6309159;22;45151;-73
2023/02/14 09:23:52;;;;;;;;;67.75;53.25;;;;;6.35;55.94;102840.28;6309094;22;45380;-72
2023/02/14 09:26:18;;;;;;;;;74.75;55.50;;;;;6.37;55.52;102833.41;6307069;22;45202;-73
2023/02/14 09:28:48;;;;;;;;;73.33;58.67;;;;;6.39;55.71;102823.91;6308397;22;45332;-73
2023/02/14 09:31:17;;;;;;;;;81.00;62.33;;;;;6.43;55.84;102817.97;6310002;22;46128;-73
2023/02/14 09:33:45;;;;;;;;;76.25;59.25;;;;;6.42;55.86;102800.50;6308410;22;45450;-73
2023/02/14 09:36:16;;;;;;;;;75.00;59.00;;;;;6.45;55.83;102803.25;6310586;22;45211;-73
2023/02/14 09:38:42;;;;;;;;;74.33;57.33;;;;;6.48;55.65;102805.97;6310022;22;45331;-73
2023/02/14 09:41:09;;;;;;;;;73.25;54.25;;;;;6.56;55.68;102806.22;6310329;22;45298;-73
2023/02/14 09:43:43;;;;;;;;;80.67;62.33;;;;;6.60;55.93;102808.13;6310684;22;45180;-73
2023/02/14 09:46:13;;;;;;;;;81.67;60.67;;;;;6.63;55.89;102800.38;6309024;22;45302;-73
2023/02/14 09:48:43;;;;;;;;;85.33;68.00;;;;;6.72;56.05;102806.78;6308430;22;45187;-73
2023/02/14 09:51:24;;;;;;;;;83.33;65.67;;;;;6.77;56.00;102803.47;6308356;22;46139;-72
2023/02/14 09:53:58;;;;;;;;;88.67;72.00;;;;;6.85;55.95;102800.25;6310668;22;45322;-72
2023/02/14 09:56:44;;;;;;;;;85.33;70.67;;;;;6.98;56.15;102810.25;6310960;22;45217;-72
2023/02/14 09:59:29;;;;;;;;;79.67;62.00;;;;;7.09;55.99;102803.66;6310520;22;45181;-72
2023/02/14 10:02:21;;;;;;;;;82.00;63.00;;;;;7.27;56.10;102805.09;6310447;22;45337;-72
2023/02/14 10:05:05;;;;;;;;;80.00;61.33;;;;;7.46;56.20;102801.38;6308260;22;45182;-72
2023/02/14 10:07:42;;;;;;;;;80.33;63.33;;;;;7.67;56.22;102809.00;6309124;22;45409;-73
2023/02/14 10:10:13;;;;;;;;;77.67;60.00;;;;;7.89;56.37;102814.91;6310675;22;45118;-72
2023/02/14 10:12:44;;;;;;;;;83.33;66.67;;;;;8.09;56.33;102805.91;6309582;22;46203;-72
2023/02/14 10:15:24;;;;;;;;;82.33;62.33;;;;;8.31;56.39;102801.25;6308052;22;45310;-72
2023/02/14 10:18:00;;;;;;;;;74.67;58.00;;;;;8.53;56.72;102804.50;6310078;22;45174;-72
2023/02/14 10:20:32;;;;;;;;;81.00;62.33;;;;;8.72;56.75;102792.81;6310487;22;45196;-72
2023/02/14 10:23:16;;;;;;;;;83.33;65.67;;;;;8.98;56.65;102792.56;6309808;22;46168;-72
2023/02/14 10:25:47;;;;;;;;;81.33;66.67;;;;;9.19;56.78;102786.97;6310717;22;45306;-72
2023/02/14 10:28:13;;;;;;;;;78.33;61.67;;;;;9.41;56.78;102791.88;6309768;22;45267;-73
2023/02/14 10:30:50;;;;;;;;;83.67;62.33;;;;;9.64;56.90;102793.28;6310215;22;45310;-72
2023/02/14 10:33:21;;;;;;;;;76.33;58.33;;;;;9.85;57.18;102785.84;6310656;22;45305;-72
2023/02/14 10:35:50;;;;;;;;;76.00;58.00;;;;;10.06;57.03;102780.19;6308314;22;45216;-72
2023/02/14 10:38:32;;;;;;;;;73.75;58.00;;;;;10.30;57.10;102784.16;6309556;22;45395;-72
2023/02/14 10:41:04;;;;;;;;;72.00;55.25;;;;;10.55;57.16;102782.00;6309631;22;45237;-72
2023/02/14 10:43:42;;;;;;;;;72.67;56.33;;;;;10.78;57.15;102778.91;6310376;22;45466;-72
2023/02/14 10:46:13;;;;;;;;;75.25;58.50;;;;;11.00;57.17;102778.41;6309860;22;45230;-72
2023/02/14 10:48:58;;;;;;;;;74.00;59.33;;;;;11.24;57.03;102774.41;6310521;22;45212;-72
2023/02/14 10:51:50;;;;;;;;;74.50;57.75;;;;;11.51;56.95;102775.69;6310360;22;45220;-73
2023/02/14 10:54:25;;;;;;;;;68.00;53.00;;;;;11.77;57.04;102775.16;6310008;22;45587;-72
2023/02/14 10:57:11;;;;;;;;;73.00;57.50;;;;;12.00;56.93;102781.63;6309300;22;45338;-73
2023/02/14 10:59:58;;;;;;;;;75.33;62.67;;;;;12.22;56.63;102773.97;6310435;22;45467;-73
2023/02/14 11:02:45;;;;;;;;;69.67;55.00;;;;;12.45;56.59;102762.78;6310006;22;45246;-72
2023/02/14 11:05:24;;;;;;;;;75.67;56.67;;;;;12.62;56.66;102755.94;6310114;22;45306;-73
2023/02/14 11:07:49;;;;;;;;;75.00;61.50;;;;;12.80;56.79;102746.41;6309110;22;45255;-73
2023/02/14 11:10:19;;;;;;;;;68.00;51.00;;;;;13.07;56.64;102752.78;6310198;22;45242;-73
2023/02/14 11:12:44;;;;;;;;;73.33;61.67;;;;;13.24;56.34;102742.34;6310122;22;45255;-73
2023/02/14 11:15:13;;;;;;;;;68.50;54.00;;;;;13.46;56.29;102743.41;6309583;22;46037;-73
2023/02/14 11:17:38;;;;;;;;;69.50;55.25;;;;;13.64;56.61;102739.97;6334444;22;45311;-72
2023/02/14 11:20:22;;;;;;;;;75.33;58.67;;;;;13.82;56.07;102733.88;6309937;22;45753;-72
2023/02/14 11:22:53;;;;;;;;;72.00;58.25;;;;;14.04;56.55;102729.56;6309888;22;45526;-73
2023/02/14 11:25:25;;;;;;;;;73.33;57.33;;;;;14.22;56.09;102726.06;6310134;22;46123;-72
2023/02/14 11:27:59;;;;;;;;;73.67;59.33;;;;;14.40;56.32;102721.69;6307392;22;45568;-72
2023/02/14 11:30:46;;;;;;;;;72.50;58.25;;;;;14.57;55.83;102716.44;6309776;22;45329;-72
2023/02/14 11:33:30;;;;;;;;;70.75;56.75;;;;;14.70;55.71;102706.75;6310134;22;45480;-73
2023/02/14 11:35:57;;;;;;;;;70.00;58.33;;;;;14.82;55.37;102709.41;6334028;22;46826;-73
2023/02/14 11:38:33;;;;;;;;;70.75;57.75;;;;;14.93;55.88;102704.97;6309381;22;45371;-73
2023/02/14 11:40:59;;;;;;;;;69.75;53.00;;;;;15.01;55.60;102706.75;6309676;22;45441;-73
2023/02/14 11:43:40;;;;;;;;;67.75;53.00;;;;;15.09;55.26;102697.00;6310069;22;45159;-73
2023/02/14 11:46:29;;;;;;;;;68.50;52.75;;;;;15.16;55.39;102690.81;6309031;22;45652;-73
2023/02/14 11:48:56;;;;;;;;;70.75;54.00;;;;;15.22;55.33;102688.16;6309629;22;45232;-72
2023/02/14 11:51:32;;;;;;;;;70.50;53.50;;;;;15.28;54.80;102679.28;6307784;22;45268;-72